createdAt,value
2023-03-23T15:58:11.527Z,14.82
2023-03-23T16:01:22.373Z,14.62
2023-03-23T16:04:24.632Z,14.40
2023-03-23T16:07:26.513Z,14.21
2023-03-23T16:10:29.889Z,14.04
2023-03-23T16:13:31.712Z,13.85
2023-03-23T16:16:42.353Z,13.64
2023-03-23T16:19:44.247Z,13.47
2023-03-23T16:22:46.742Z,13.29
2023-03-23T16:25:49.644Z,13.13
2023-03-23T16:28:53.275Z,12.98
2023-03-23T16:31:57.584Z,12.80
2023-03-23T16:34:59.602Z,12.65
2023-03-23T16:38:07.024Z,12.52
2023-03-23T16:41:10.854Z,12.39
2023-03-23T16:44:12.893Z,12.24
2023-03-23T16:47:14.753Z,12.12
2023-03-23T16:50:18.505Z,12.00
2023-03-23T16:53:21.713Z,11.86
2023-03-23T16:56:23.675Z,11.75
2023-03-23T16:59:29.035Z,11.63
2023-03-23T17:02:31.042Z,11.49
2023-03-23T17:05:35.262Z,11.39
2023-03-23T17:08:37.137Z,11.28
2023-03-23T17:11:38.996Z,11.15
2023-03-23T17:14:40.937Z,11.08
2023-03-23T17:17:43.037Z,10.98
2023-03-23T17:20:45.279Z,10.88
2023-03-23T17:23:47.176Z,10.80
2023-03-23T17:26:52.027Z,10.71
2023-03-23T17:29:53.891Z,10.63
2023-03-23T17:32:56.074Z,10.53
2023-03-23T17:35:58.944Z,10.42
2023-03-23T17:39:00.860Z,10.39
2023-03-23T17:42:04.103Z,10.27
2023-03-23T17:45:08.108Z,10.17
2023-03-23T17:48:10.072Z,10.09
2023-03-23T17:51:12.156Z,10.04
2023-03-23T17:54:14.090Z,9.94
2023-03-23T17:57:16.171Z,9.88
2023-03-23T18:00:18.642Z,9.81
2023-03-23T18:03:20.986Z,9.73
2023-03-23T18:06:22.957Z,9.65
2023-03-23T18:09:25.977Z,9.56
2023-03-23T18:12:28.204Z,9.49
2023-03-23T18:15:31.105Z,9.42
2023-03-23T18:18:33.599Z,9.34
2023-03-23T18:21:35.446Z,9.23
2023-03-23T18:24:37.276Z,9.16
2023-03-23T18:27:39.219Z,9.08
2023-03-23T18:30:41.145Z,9.00
2023-03-23T18:33:46.829Z,8.92
2023-03-23T18:36:48.772Z,8.83
2023-03-23T18:39:50.813Z,8.76
2023-03-23T18:42:52.688Z,8.70
2023-03-23T18:45:57.344Z,8.62
2023-03-23T18:48:59.150Z,8.54
2023-03-23T18:52:01.333Z,8.48
2023-03-23T18:55:03.361Z,8.41
2023-03-23T18:58:05.143Z,8.35
2023-03-23T19:01:10.545Z,8.30
2023-03-23T19:04:13.674Z,8.25
2023-03-23T19:07:17.236Z,8.19
2023-03-23T19:10:20.961Z,8.14
2023-03-23T19:13:22.790Z,8.04
2023-03-23T19:16:24.671Z,7.98
2023-03-23T19:19:27.059Z,7.96
2023-03-23T19:22:29.069Z,7.90
2023-03-23T19:25:30.949Z,7.86
2023-03-23T19:29:09.698Z,7.82
2023-03-23T19:31:56.590Z,7.77
2023-03-23T19:34:59.223Z,7.73
2023-03-23T19:38:01.408Z,7.67
2023-03-23T19:41:05.799Z,7.65
2023-03-23T19:44:09.686Z,7.58
2023-03-23T19:47:12.409Z,7.52
2023-03-23T19:50:14.605Z,7.49
2023-03-23T19:53:17.959Z,7.46
2023-03-23T19:56:21.834Z,7.42
2023-03-23T19:59:23.779Z,7.38
2023-03-23T20:02:25.746Z,7.34
2023-03-23T20:05:27.975Z,7.28
2023-03-23T20:08:31.331Z,7.23
2023-03-23T20:11:34.534Z,7.20
2023-03-23T20:14:38.241Z,7.15
2023-03-23T20:17:40.202Z,7.10
2023-03-23T20:20:42.032Z,7.05
2023-03-23T20:23:46.369Z,7.01
2023-03-23T20:26:48.222Z,6.96
2023-03-23T20:29:52.323Z,6.92
2023-03-23T20:32:59.320Z,6.87
2023-03-23T20:36:04.893Z,6.83
2023-03-23T20:39:10.758Z,6.79
2023-03-23T20:42:12.926Z,6.72
2023-03-23T20:45:16.228Z,6.66
2023-03-23T20:48:18.094Z,6.60
2023-03-23T20:51:21.058Z,6.56
2023-03-23T20:54:25.320Z,6.49
2023-03-23T20:57:29.951Z,6.45
2023-03-23T21:00:34.125Z,6.42
2023-03-23T21:03:41.504Z,6.38
2023-03-23T21:06:45.265Z,6.30
2023-03-23T21:09:50.211Z,6.24
2023-03-23T21:12:52.088Z,6.22
2023-03-23T21:15:54.290Z,6.16
2023-03-23T21:18:56.813Z,6.12
2023-03-23T21:22:03.682Z,6.08
2023-03-23T21:25:07.967Z,6.03
2023-03-23T21:28:10.447Z,5.98
2023-03-23T21:31:13.777Z,5.92
2023-03-23T21:34:18.740Z,5.89
2023-03-23T21:37:21.160Z,5.86
2023-03-23T21:40:23.060Z,5.81
2023-03-23T21:43:29.103Z,5.79
2023-03-23T21:46:31.792Z,5.77
2023-03-23T21:49:33.892Z,5.71
2023-03-23T21:52:36.199Z,5.68
2023-03-23T21:55:38.340Z,5.64
2023-03-23T21:58:43.161Z,5.61
2023-03-23T22:01:45.016Z,5.59
2023-03-23T22:04:46.978Z,5.55
2023-03-23T22:07:49.397Z,5.50
2023-03-23T22:11:00.487Z,5.45
2023-03-23T22:14:04.672Z,5.39
2023-03-23T22:17:07.471Z,5.33
2023-03-23T22:20:13.454Z,5.34
2023-03-23T22:23:15.612Z,5.34
2023-03-23T22:26:17.791Z,5.31
2023-03-23T22:29:23.086Z,5.28
2023-03-23T22:32:25.028Z,5.24
2023-03-23T22:35:28.022Z,5.23
2023-03-23T22:38:29.714Z,5.19
2023-03-23T22:41:36.898Z,5.20
2023-03-23T22:44:38.838Z,5.16
2023-03-23T22:47:40.678Z,5.12
2023-03-23T22:50:42.488Z,5.10
2023-03-23T22:53:45.493Z,5.07
2023-03-23T22:56:47.357Z,4.99
2023-03-23T22:59:50.009Z,5.00
2023-03-23T23:02:52.095Z,4.97
2023-03-23T23:05:55.562Z,4.97
2023-03-23T23:08:57.403Z,4.95
2023-03-23T23:11:59.298Z,4.95
2023-03-23T23:15:05.984Z,4.95
2023-03-23T23:18:07.853Z,4.93
2023-03-23T23:21:14.985Z,4.96
2023-03-23T23:24:17.243Z,4.97
2023-03-23T23:27:19.375Z,4.99
2023-03-23T23:30:23.698Z,5.00
2023-03-23T23:33:27.725Z,5.01
2023-03-23T23:36:31.996Z,5.01
2023-03-23T23:39:40.056Z,5.00
2023-03-23T23:42:43.320Z,5.01
2023-03-23T23:45:45.257Z,5.01
2023-03-23T23:48:47.598Z,5.01
2023-03-23T23:51:51.959Z,4.98
2023-03-23T23:54:56.226Z,5.02
2023-03-23T23:57:58.094Z,5.03
